This is the latest recevied weather packets stored in our database for station/object N0HEQ. If no packets are shown the sender has not sent any weather packets the latest 10 day(s).
| Time | Temp. | Humidity | Pressure | Rain* | Wind** | Luminosity | Snow |
|---|---|---|---|---|---|---|---|
| 1777776805 | 15.56° C | 25% | 1019.9 hPa | 0 mm | - | 0 W/m² | - |
| 1777776501 | 15° C | 27% | 1019.8 hPa | 0 mm | - | 0 W/m² | - |
| 1777776198 | 15° C | 26% | 1020.1 hPa | 0 mm | - | 0 W/m² | - |
| 1777775895 | 15° C | 26% | 1019.8 hPa | 0 mm | - | 0 W/m² | - |
| 1777775592 | 15° C | 26% | 1019.9 hPa | 0 mm | - | 0 W/m² | - |
| 1777775289 | 15° C | 26% | 1019.6 hPa | 0 mm | - | 0 W/m² | - |
| 1777774988 | 15.56° C | 24% | 1019.9 hPa | 0 mm | - | 0 W/m² | - |
| 1777774685 | 16.11° C | 24% | 1019.6 hPa | 0 mm | - | 0 W/m² | - |
| 1777774381 | 16.67° C | 23% | 1019.5 hPa | 0 mm | - | 0 W/m² | - |
| 1777774079 | 16.67° C | 23% | 1019.8 hPa | 0 mm | - | 0 W/m² | - |
| 1777773777 | 17.22° C | 21% | 1019.5 hPa | 0 mm | - | 1 W/m² | - |
| 1777773473 | 17.22° C | 20% | 1019.6 hPa | 0 mm | - | 1 W/m² | - |
| 1777771958 | 18.89° C | 16% | 1019.3 hPa | 0 mm | - | 10 W/m² | - |
| 1777771049 | 20° C | 14% | 1019.3 hPa | 0 mm | - | 21 W/m² | - |
| 1777769837 | 21.11° C | 13% | 1018.9 hPa | 0 mm | - | 33 W/m² | - |
| 1777769534 | 21.11° C | 12% | 1018.8 hPa | 0 mm | - | 53 W/m² | - |
| 1777768929 | 21.67° C | 12% | 1018.9 hPa | 0 mm | - | 68 W/m² | - |
| 1777768019 | 22.22° C | 11% | 1018.9 hPa | 0 mm | - | 95 W/m² | - |
| 1777767715 | 22.78° C | 12% | 1019.2 hPa | 0 mm | - | 109 W/m² | - |
| 1777767411 | 22.78° C | 12% | 1019 hPa | 0 mm | - | 125 W/m² | - |
| 1777767109 | 22.78° C | 11% | 1019.4 hPa | 0 mm | - | 143 W/m² | - |
| 1777766200 | 22.22° C | 11% | 1019.4 hPa | 0 mm | - | 185 W/m² | - |
| 1777765898 | 22.78° C | 10% | 1019.5 hPa | 0 mm | - | 198 W/m² | - |
| 1777764987 | 24.44° C | 10% | 1019.4 hPa | 0 mm | - | 243 W/m² | - |
| 1777764684 | 23.33° C | 12% | 1019.5 hPa | 0 mm | - | 258 W/m² | - |
* Rain latest hour (hover to see other rain measurements)
** Current wind speed in m/s (hover to see current wind gust speed)